Time;durP1;ratioP1;P1;durP2;ratioP2;P2;SDS_P1;SDS_P2;PMS_P1;PMS_P2;Temp;Humidity;BMP_temperature;BMP_pressure;BME280_temperature;BME280_humidity;BME280_pressure;Samples;Min_cycle;Max_cycle;Signal;HPM_P1;HPM_P2
2022/09/12 00:01:03;;;;;;;5.43;4.60;;;12.60;99.90;;;;;;5052623;28;20460;-68
2022/09/12 00:03:30;;;;;;;5.60;4.00;;;12.60;99.90;;;;;;5051608;28;20480;-67
2022/09/12 00:05:57;;;;;;;5.30;3.93;;;12.60;99.90;;;;;;5052574;28;20488;-68
2022/09/12 00:08:23;;;;;;;5.00;4.47;;;12.60;99.90;;;;;;5052128;28;20467;-67
2022/09/12 00:10:50;;;;;;;4.60;4.10;;;12.50;99.90;;;;;;5052397;28;20464;-68
2022/09/12 00:13:18;;;;;;;5.13;4.63;;;12.50;99.90;;;;;;5051745;28;20541;-68
2022/09/12 00:15:45;;;;;;;5.30;4.23;;;12.50;99.90;;;;;;5051969;28;20456;-68
2022/09/12 00:18:15;;;;;;;5.53;5.00;;;12.50;99.90;;;;;;5052527;28;20456;-67
2022/09/12 00:20:42;;;;;;;6.90;4.77;;;12.40;99.90;;;;;;5051783;28;20467;-67
2022/09/12 00:23:09;;;;;;;9.50;4.20;;;12.40;99.90;;;;;;5052005;28;20491;-68
2022/09/12 00:28:04;;;;;;;4.63;4.17;;;12.40;99.90;;;;;;5089118;28;20846;-69
2022/09/12 00:30:32;;;;;;;5.00;4.43;;;12.40;99.90;;;;;;5092002;28;20862;-69
2022/09/12 00:32:59;;;;;;;4.30;3.90;;;12.30;99.90;;;;;;5082972;28;20482;-69
2022/09/12 00:35:26;;;;;;;4.83;4.33;;;12.30;99.90;;;;;;5072155;28;20205;-69
2022/09/12 00:37:52;;;;;;;5.27;3.50;;;12.30;99.90;;;;;;5071296;28;20464;-69
2022/09/12 00:40:19;;;;;;;5.27;4.13;;;12.20;99.90;;;;;;5071786;28;20463;-69
2022/09/12 00:42:46;;;;;;;6.03;5.23;;;12.20;99.90;;;;;;5070709;28;20486;-68
2022/09/12 00:45:22;;;;;;;4.47;3.63;;;12.20;99.90;;;;;;5072034;28;20467;-69
2022/09/12 00:47:51;;;;;;;5.10;4.03;;;12.20;99.90;;;;;;5071377;28;20964;-69
2022/09/12 00:50:18;;;;;;;5.77;4.20;;;12.20;99.90;;;;;;5071988;28;20583;-68
2022/09/12 00:52:48;;;;;;;5.20;4.20;;;12.20;99.90;;;;;;5070958;28;20483;-69
2022/09/12 00:55:17;;;;;;;5.40;4.33;;;12.20;99.90;;;;;;5071536;28;20466;-69
2022/09/12 00:57:50;;;;;;;4.07;3.67;;;12.20;99.90;;;;;;5071643;28;20481;-69
2022/09/12 01:00:19;;;;;;;5.17;4.70;;;12.20;99.90;;;;;;5071627;28;20459;-69
2022/09/12 01:02:50;;;;;;;5.20;4.63;;;12.10;99.90;;;;;;5070869;28;20894;-69
2022/09/12 01:05:18;;;;;;;5.68;5.03;;;12.10;99.90;;;;;;5071568;28;20489;-69
2022/09/12 01:07:47;;;;;;;4.60;4.20;;;12.10;99.90;;;;;;5071316;28;20721;-69
2022/09/12 01:10:15;;;;;;;4.63;3.50;;;12.00;99.90;;;;;;5071633;28;20462;-69
2022/09/12 01:12:43;;;;;;;4.73;4.33;;;12.00;99.90;;;;;;5070374;28;20479;-69
2022/09/12 01:15:11;;;;;;;3.97;3.57;;;12.00;99.90;;;;;;5071629;28;20463;-69
2022/09/12 01:18:01;;;;;;;4.53;4.13;;;12.00;99.90;;;;;;5070958;28;20554;-69
2022/09/12 01:20:54;;;;;;;4.50;4.07;;;11.90;99.90;;;;;;5071394;28;20467;-68
2022/09/12 01:23:48;;;;;;;4.37;3.97;;;12.00;99.90;;;;;;5070835;28;20526;-69
2022/09/12 01:26:56;;;;;;;4.93;4.47;;;11.90;99.90;;;;;;5070522;28;20486;-69
2022/09/12 01:29:43;;;;;;;4.57;4.10;;;11.90;99.90;;;;;;5070991;28;20485;-69
2022/09/12 01:32:19;;;;;;;6.30;4.50;;;11.80;99.90;;;;;;5070952;28;20212;-69
2022/09/12 01:34:49;;;;;;;4.40;3.87;;;11.80;99.90;;;;;;5071054;28;20485;-69
2022/09/12 01:37:25;;;;;;;4.40;4.00;;;11.80;99.90;;;;;;5071209;28;20885;-69
2022/09/12 01:40:00;;;;;;;5.20;4.70;;;11.80;99.90;;;;;;5070521;28;20890;-69
2022/09/12 01:42:34;;;;;;;4.90;4.37;;;11.70;99.90;;;;;;5070587;28;20517;-69
2022/09/12 01:45:07;;;;;;;4.28;3.85;;;11.70;99.90;;;;;;5071102;28;20471;-68
2022/09/12 01:47:40;;;;;;;4.30;3.97;;;11.70;99.90;;;;;;5070272;28;20221;-69
2022/09/12 01:50:12;;;;;;;5.70;5.20;;;11.70;99.90;;;;;;5070990;28;20197;-69
2022/09/12 01:52:43;;;;;;;4.95;4.45;;;11.70;99.90;;;;;;5069814;28;20494;-69
2022/09/12 01:55:16;;;;;;;5.22;4.18;;;11.60;99.90;;;;;;5070996;28;20205;-69
2022/09/12 01:57:48;;;;;;;4.00;3.60;;;11.60;99.90;;;;;;5070147;28;20212;-69
2022/09/12 02:00:15;;;;;;;4.80;3.92;;;11.60;99.90;;;;;;5070742;28;20204;-69
2022/09/12 02:02:49;;;;;;;3.65;3.28;;;11.60;99.90;;;;;;5069549;28;20221;-69
2022/09/12 02:05:20;;;;;;;6.10;3.67;;;11.50;99.90;;;;;;5071175;28;20212;-69
2022/09/12 02:07:51;;;;;;;5.30;4.50;;;11.50;99.90;;;;;;5070244;28;20586;-69
2022/09/12 02:10:21;;;;;;;4.43;3.83;;;11.50;99.90;;;;;;5070715;28;20699;-69
2022/09/12 02:12:52;;;;;;;3.75;3.28;;;11.50;99.90;;;;;;5069900;28;20221;-68
2022/09/12 02:15:21;;;;;;;4.65;4.15;;;11.40;99.90;;;;;;5070786;28;20205;-69
2022/09/12 02:17:53;;;;;;;4.00;3.60;;;11.40;99.90;;;;;;5070706;28;20197;-69
2022/09/12 02:20:23;;;;;;;4.55;3.90;;;11.40;99.90;;;;;;5070538;28;20205;-69
2022/09/12 02:22:52;;;;;;;4.72;3.97;;;11.40;99.90;;;;;;5069736;28;20225;-69
2022/09/12 02:25:20;;;;;;;4.93;4.25;;;11.40;99.90;;;;;;5070414;28;20209;-69
2022/09/12 02:27:50;;;;;;;3.95;3.55;;;11.40;99.90;;;;;;5070154;28;20225;-69
2022/09/12 02:30:18;;;;;;;5.07;4.57;;;11.40;99.90;;;;;;5070363;28;20207;-69
2022/09/12 02:32:56;;;;;;;5.37;4.50;;;11.40;99.90;;;;;;5069650;28;20225;-69
2022/09/12 02:35:33;;;;;;;6.60;4.55;;;11.30;99.90;;;;;;5070597;28;20494;-69
2022/09/12 02:38:06;;;;;;;4.57;4.15;;;11.30;99.90;;;;;;5072553;28;20580;-69
2022/09/12 02:40:33;;;;;;;4.10;3.70;;;11.30;99.90;;;;;;5074679;28;20200;-69
2022/09/12 02:43:01;;;;;;;4.75;4.25;;;11.30;99.90;;;;;;5073582;28;20228;-69
2022/09/12 02:45:28;;;;;;;4.13;3.60;;;11.30;99.90;;;;;;5074505;28;20205;-69
2022/09/12 02:48:02;;;;;;;4.47;4.03;;;11.30;99.90;;;;;;5074028;28;20231;-69
2022/09/12 02:50:29;;;;;;;4.00;3.42;;;11.20;99.90;;;;;;5074441;28;20201;-69
2022/09/12 02:52:58;;;;;;;4.25;3.50;;;11.20;99.90;;;;;;5073325;28;20221;-70
2022/09/12 02:55:26;;;;;;;4.32;3.58;;;11.20;99.90;;;;;;5074576;28;20235;-69
2022/09/12 02:57:52;;;;;;;4.90;4.47;;;11.20;99.90;;;;;;5073939;28;20616;-69
2022/09/12 03:00:19;;;;;;;4.47;4.07;;;11.20;99.90;;;;;;5074161;28;20209;-69
2022/09/12 03:03:04;;;;;;;5.00;4.00;;;11.20;99.90;;;;;;5073138;28;20235;-69
2022/09/12 03:05:32;;;;;;;4.50;3.55;;;11.20;99.90;;;;;;5073954;28;20224;-69
2022/09/12 03:08:21;;;;;;;3.78;3.47;;;11.20;99.90;;;;;;5073758;28;20961;-69
2022/09/12 03:11:05;;;;;;;5.65;3.60;;;11.20;99.90;;;;;;5073602;28;20201;-69
2022/09/12 03:13:40;;;;;;;4.95;3.90;;;11.10;99.90;;;;;;5073378;28;20577;-68
2022/09/12 03:16:16;;;;;;;4.50;4.10;;;11.10;99.90;;;;;;5073839;28;20209;-69
2022/09/12 03:18:52;;;;;;;4.35;3.95;;;11.10;99.90;;;;;;5073677;28;20200;-69
2022/09/12 03:21:26;;;;;;;4.72;3.90;;;11.10;99.90;;;;;;5073559;28;20207;-69
2022/09/12 03:24:09;;;;;;;4.82;4.10;;;11.10;99.90;;;;;;5072889;28;20219;-68
2022/09/12 03:26:42;;;;;;;4.55;3.60;;;11.10;99.90;;;;;;5073160;28;20224;-69
2022/09/12 03:29:10;;;;;;;5.25;3.90;;;11.00;99.90;;;;;;5073671;28;20208;-69
2022/09/12 03:31:38;;;;;;;4.57;4.05;;;11.10;99.90;;;;;;5073010;28;20663;-69
2022/09/12 03:34:11;;;;;;;6.38;4.07;;;11.00;99.90;;;;;;5072164;28;20317;-69
2022/09/12 03:36:40;;;;;;;7.20;3.80;;;11.00;99.90;;;;;;5072821;28;20185;-69
2022/09/12 03:39:06;;;;;;;4.40;3.90;;;11.00;99.90;;;;;;5072397;28;20201;-69
2022/09/12 03:41:33;;;;;;;4.78;4.35;;;11.00;99.90;;;;;;5072812;28;20551;-68
2022/09/12 03:43:59;;;;;;;5.20;4.00;;;11.00;99.90;;;;;;5072165;28;20225;-69
2022/09/12 03:46:26;;;;;;;4.53;4.13;;;11.00;99.90;;;;;;5072643;28;20197;-69
2022/09/12 03:48:53;;;;;;;3.72;3.42;;;11.00;99.90;;;;;;5071434;28;20235;-69
2022/09/12 03:51:21;;;;;;;5.78;4.43;;;11.00;99.90;;;;;;5072600;28;20204;-69
2022/09/12 03:53:48;;;;;;;4.45;3.80;;;11.00;99.90;;;;;;5071796;28;20216;-69
2022/09/12 03:56:15;;;;;;;4.32;3.67;;;10.90;99.90;;;;;;5072754;28;20269;-69
2022/09/12 03:58:41;;;;;;;4.90;4.13;;;10.90;99.90;;;;;;5072587;28;20486;-69
2022/09/12 04:01:11;;;;;;;3.63;3.33;;;10.90;99.90;;;;;;5072632;28;20205;-69
2022/09/12 04:03:38;;;;;;;4.72;3.92;;;10.90;99.90;;;;;;5072339;28;20229;-69
2022/09/12 04:06:06;;;;;;;5.03;4.50;;;10.90;99.90;;;;;;5072320;28;20318;-69
2022/09/12 04:08:34;;;;;;;4.68;3.90;;;10.90;99.90;;;;;;5072748;28;20217;-69
2022/09/12 04:11:04;;;;;;;4.63;4.20;;;10.90;99.90;;;;;;5072555;28;20220;-69
2022/09/12 04:13:31;;;;;;;4.00;3.65;;;10.80;99.90;;;;;;5072144;28;20259;-69
2022/09/12 04:15:58;;;;;;;5.32;3.90;;;10.80;99.90;;;;;;5072706;28;20230;-69
2022/09/12 04:18:25;;;;;;;4.25;3.72;;;10.80;99.90;;;;;;5072237;28;20197;-69
2022/09/12 04:20:52;;;;;;;3.83;3.42;;;10.80;99.90;;;;;;5072062;28;20200;-69
2022/09/12 04:23:19;;;;;;;5.35;3.50;;;10.70;99.90;;;;;;5071116;28;20304;-69
2022/09/12 04:25:54;;;;;;;3.90;3.35;;;10.80;99.90;;;;;;5071866;28;20197;-68
2022/09/12 04:28:21;;;;;;;4.22;3.83;;;10.70;99.90;;;;;;5071450;28;20612;-68
2022/09/12 04:30:48;;;;;;;5.55;4.47;;;10.80;99.90;;;;;;5072258;28;20204;-68
2022/09/12 04:33:15;;;;;;;4.82;3.90;;;10.80;99.90;;;;;;5071266;28;20228;-69
2022/09/12 04:35:42;;;;;;;4.93;4.03;;;10.80;99.90;;;;;;5071809;28;20206;-68
2022/09/12 04:38:09;;;;;;;5.68;4.07;;;10.70;99.90;;;;;;5072343;28;20200;-69
2022/09/12 04:40:35;;;;;;;5.93;3.97;;;10.70;99.90;;;;;;5072007;28;20201;-68
2022/09/12 04:43:05;;;;;;;4.88;3.80;;;10.70;99.90;;;;;;5071634;28;20228;-69
2022/09/12 04:45:32;;;;;;;5.00;4.60;;;10.80;99.90;;;;;;5072292;28;20631;-68
2022/09/12 04:47:59;;;;;;;4.40;3.90;;;10.70;99.90;;;;;;5072139;28;20232;-69
2022/09/12 04:50:26;;;;;;;6.03;4.45;;;10.70;99.90;;;;;;5071847;28;20201;-69
2022/09/12 04:52:53;;;;;;;4.25;3.80;;;10.70;99.90;;;;;;5071464;28;20248;-69
2022/09/12 04:55:20;;;;;;;5.80;4.97;;;10.70;99.90;;;;;;5071619;28;20209;-69
2022/09/12 04:57:47;;;;;;;4.30;3.90;;;10.70;99.90;;;;;;5071617;28;20581;-69
2022/09/12 05:00:16;;;;;;;5.80;4.82;;;10.70;99.90;;;;;;5071240;28;20250;-73
2022/09/12 05:02:43;;;;;;;4.25;3.83;;;10.70;99.90;;;;;;5070080;28;20225;-69
2022/09/12 05:05:10;;;;;;;4.63;4.00;;;10.70;99.90;;;;;;5071423;28;20448;-69
2022/09/12 05:07:37;;;;;;;4.70;3.72;;;10.70;99.90;;;;;;5070814;28;20221;-69
2022/09/12 05:10:04;;;;;;;4.28;3.88;;;10.70;99.90;;;;;;5071308;28;20201;-69
2022/09/12 05:12:31;;;;;;;5.68;4.30;;;10.70;99.90;;;;;;5070274;28;20228;-68
2022/09/12 05:14:58;;;;;;;5.50;4.22;;;10.70;99.90;;;;;;5071306;28;20197;-69
2022/09/12 05:17:26;;;;;;;4.45;3.72;;;10.70;99.90;;;;;;5070886;28;20622;-69
2022/09/12 05:19:52;;;;;;;5.40;4.85;;;10.70;99.90;;;;;;5071242;28;20208;-69
2022/09/12 05:22:19;;;;;;;5.88;4.25;;;10.70;99.90;;;;;;5070975;28;20228;-68
2022/09/12 05:24:47;;;;;;;5.05;4.35;;;10.70;99.90;;;;;;5071131;28;20208;-69
2022/09/12 05:27:14;;;;;;;6.70;3.90;;;10.70;99.90;;;;;;5071513;28;20224;-68
2022/09/12 05:29:41;;;;;;;6.57;4.53;;;10.70;99.90;;;;;;5070972;28;20212;-69
2022/09/12 05:32:09;;;;;;;5.85;4.60;;;10.70;99.90;;;;;;5070649;28;20263;-69
2022/09/12 05:34:40;;;;;;;7.22;4.90;;;10.80;99.90;;;;;;5070723;28;20229;-69
2022/09/12 05:37:07;;;;;;;6.20;4.78;;;10.80;99.90;;;;;;5071303;28;20577;-69
2022/09/12 05:39:33;;;;;;;5.20;4.50;;;10.80;99.90;;;;;;5070904;28;20205;-69
2022/09/12 05:42:01;;;;;;;7.47;4.25;;;10.80;99.90;;;;;;5070376;28;20208;-69
2022/09/12 05:44:28;;;;;;;5.72;4.53;;;10.80;99.90;;;;;;5070889;28;20197;-69
2022/09/12 05:46:54;;;;;;;5.75;5.15;;;10.80;99.90;;;;;;5070792;28;20232;-68
2022/09/12 05:49:21;;;;;;;5.47;4.28;;;10.90;99.90;;;;;;5070763;28;20205;-69
2022/09/12 05:51:50;;;;;;;5.78;4.93;;;10.90;99.90;;;;;;5069975;28;20292;-69
2022/09/12 05:54:20;;;;;;;5.82;4.60;;;10.90;99.90;;;;;;5071215;28;20221;-68
2022/09/12 05:56:47;;;;;;;6.78;4.20;;;10.90;99.90;;;;;;5070438;28;20247;-69
2022/09/12 05:59:16;;;;;;;4.07;3.70;;;11.00;99.90;;;;;;5070944;28;20201;-68
2022/09/12 06:01:43;;;;;;;4.57;4.18;;;11.00;99.90;;;;;;5069786;28;20205;-68
2022/09/12 06:04:10;;;;;;;7.07;4.47;;;11.10;99.90;;;;;;5070814;28;20283;-68
2022/09/12 06:06:42;;;;;;;4.75;4.22;;;11.10;99.90;;;;;;5070126;28;20210;-69
2022/09/12 06:09:10;;;;;;;5.57;4.65;;;11.20;99.90;;;;;;5070834;28;20270;-69
2022/09/12 06:11:39;;;;;;;5.65;4.60;;;11.10;99.90;;;;;;5069578;28;20240;-68
2022/09/12 06:14:07;;;;;;;4.82;4.15;;;11.20;99.90;;;;;;5070615;28;20247;-68
2022/09/12 06:16:35;;;;;;;4.82;4.32;;;11.30;99.90;;;;;;5070354;28;20209;-68
2022/09/12 06:19:05;;;;;;;5.60;4.53;;;11.40;99.90;;;;;;5070325;28;20201;-69
2022/09/12 06:21:33;;;;;;;5.13;4.25;;;11.40;99.90;;;;;;5070404;28;20205;-68
2022/09/12 06:24:01;;;;;;;5.97;5.00;;;11.50;99.90;;;;;;5069735;28;20311;-69
2022/09/12 06:28:59;;;;;;;5.33;3.73;;;11.70;99.90;;;;;;5067665;28;20291;-68
2022/09/12 06:31:28;;;;;;;4.90;4.40;;;11.80;99.90;;;;;;5052621;28;20452;-68
2022/09/12 06:33:57;;;;;;;5.70;5.10;;;11.90;99.90;;;;;;5050212;28;20484;-68
2022/09/12 06:36:25;;;;;;;6.70;5.30;;;12.00;99.90;;;;;;5050431;28;20513;-67
2022/09/12 06:38:56;;;;;;;6.70;5.53;;;12.10;99.90;;;;;;5059332;28;20207;-68
2022/09/12 06:41:24;;;;;;;6.38;5.78;;;12.20;99.90;;;;;;5053721;28;20201;-68
2022/09/12 06:43:51;;;;;;;8.10;5.40;;;12.30;99.90;;;;;;5049796;28;20229;-68
2022/09/12 06:46:19;;;;;;;5.73;5.10;;;12.40;99.90;;;;;;5050498;28;20460;-68
2022/09/12 06:48:47;;;;;;;6.90;5.30;;;12.50;99.90;;;;;;5067909;28;21132;-69
2022/09/12 06:51:15;;;;;;;6.05;5.32;;;12.60;99.90;;;;;;5069834;28;20550;-68
2022/09/12 06:53:43;;;;;;;7.83;5.73;;;12.70;99.90;;;;;;5069898;28;20225;-68
2022/09/12 06:56:12;;;;;;;6.82;4.90;;;12.80;99.90;;;;;;5069831;28;20947;-69
2022/09/12 06:58:40;;;;;;;6.13;5.30;;;13.00;99.90;;;;;;5070871;28;20356;-69
2022/09/12 07:01:09;;;;;;;5.38;4.85;;;13.10;99.90;;;;;;5070643;28;20473;-69
2022/09/12 07:03:38;;;;;;;4.67;4.17;;;13.30;99.90;;;;;;5069263;28;20282;-68
2022/09/12 07:06:06;;;;;;;5.77;4.90;;;13.50;99.90;;;;;;5070356;28;20469;-68
2022/09/12 07:08:34;;;;;;;5.50;4.40;;;13.60;99.90;;;;;;5067786;28;20839;-68
2022/09/12 07:11:09;;;;;;;6.50;5.53;;;13.70;99.90;;;;;;5070118;28;20474;-68
2022/09/12 07:13:36;;;;;;;5.17;4.73;;;13.90;99.90;;;;;;5069419;28;20483;-69
2022/09/12 07:16:04;;;;;;;5.10;4.27;;;14.10;99.90;;;;;;5070320;28;20466;-68
2022/09/12 07:18:31;;;;;;;3.60;3.27;;;14.20;99.90;;;;;;5070139;28;20973;-69
2022/09/12 07:21:01;;;;;;;6.20;4.40;;;14.40;99.90;;;;;;5069671;28;20467;-68
2022/09/12 07:23:27;;;;;;;5.33;3.80;;;14.50;99.90;;;;;;5069752;28;20513;-69
2022/09/12 07:25:56;;;;;;;5.10;4.27;;;14.70;99.90;;;;;;5073358;28;20458;-68
2022/09/12 07:28:23;;;;;;;4.60;4.20;;;14.90;99.90;;;;;;5073744;28;20504;-68
2022/09/12 07:30:52;;;;;;;4.97;4.40;;;15.00;99.90;;;;;;5073435;28;20489;-69
2022/09/12 07:33:23;;;;;;;4.83;4.37;;;15.10;99.90;;;;;;5072810;28;20478;-68
2022/09/12 07:35:50;;;;;;;3.90;3.50;;;15.30;99.90;;;;;;5074134;28;20459;-69
2022/09/12 07:38:18;;;;;;;3.87;3.50;;;15.40;99.90;;;;;;5073461;28;20458;-69
2022/09/12 07:40:44;;;;;;;5.17;4.20;;;15.60;99.90;;;;;;5074156;28;20976;-68
2022/09/12 07:43:17;;;;;;;5.50;4.00;;;15.80;99.90;;;;;;5072724;28;20490;-69
2022/09/12 07:45:44;;;;;;;4.87;4.40;;;16.00;99.90;;;;;;5072261;28;20517;-68
2022/09/12 07:48:11;;;;;;;4.50;3.20;;;16.20;99.90;;;;;;5054292;28;20488;-66
2022/09/12 07:50:38;;;;;;;3.80;3.40;;;16.40;99.90;;;;;;5052131;28;20947;-66
2022/09/12 07:53:06;;;;;;;3.90;3.50;;;16.50;99.90;;;;;;5052310;28;20484;-66
2022/09/12 07:55:34;;;;;;;3.97;3.63;;;16.60;99.90;;;;;;5051959;28;20468;-66
2022/09/12 07:58:02;;;;;;;4.03;3.60;;;16.80;99.90;;;;;;5052592;28;20452;-66
2022/09/12 08:00:34;;;;;;;4.27;3.87;;;16.90;99.90;;;;;;5051634;28;20463;-66
2022/09/12 08:03:03;;;;;;;3.97;3.60;;;17.10;99.90;;;;;;5052096;28;20574;-69
2022/09/12 08:05:29;;;;;;;4.07;3.40;;;17.30;99.90;;;;;;5051969;28;20941;-68
2022/09/12 08:07:56;;;;;;;3.73;3.43;;;17.40;99.90;;;;;;5052175;28;20466;-69
2022/09/12 08:10:23;;;;;;;3.23;3.00;;;17.50;99.90;;;;;;5051359;28;20460;-68
2022/09/12 08:12:51;;;;;;;3.70;3.40;;;17.50;99.90;;;;;;5051664;28;20793;-69
2022/09/12 08:15:18;;;;;;;3.90;3.50;;;17.40;99.90;;;;;;5052321;28;20958;-69
2022/09/12 08:17:45;;;;;;;3.53;3.23;;;17.40;99.90;;;;;;5052082;28;20864;-68
2022/09/12 08:20:12;;;;;;;4.13;3.00;;;17.50;99.90;;;;;;5051343;28;20477;-69
2022/09/12 08:22:39;;;;;;;3.47;3.17;;;17.60;99.90;;;;;;5050977;28;20480;-68
2022/09/12 08:25:07;;;;;;;3.87;3.57;;;17.80;99.90;;;;;;5051550;28;20868;-69
2022/09/12 08:27:34;;;;;;;3.43;3.13;;;18.10;99.90;;;;;;5051785;28;20559;-68
2022/09/12 08:30:02;;;;;;;4.57;2.90;;;18.30;99.90;;;;;;5054006;28;20487;-69
2022/09/12 08:32:29;;;;;;;5.07;4.30;;;18.50;99.90;;;;;;5061943;28;20566;-68
2022/09/12 08:34:55;;;;;;;4.50;4.07;;;18.70;99.90;;;;;;5071565;28;20460;-68
2022/09/12 08:37:22;;;;;;;4.03;3.73;;;18.90;99.90;;;;;;5071498;28;20958;-68
2022/09/12 08:39:50;;;;;;;4.63;4.23;;;19.00;99.90;;;;;;5070637;28;20463;-69
2022/09/12 08:42:30;;;;;;;5.80;3.83;;;19.20;99.90;;;;;;5062796;28;20510;-68
2022/09/12 08:45:13;;;;;;;3.87;3.40;;;19.30;99.90;;;;;;5051352;28;20463;-68
2022/09/12 08:47:43;;;;;;;3.67;3.20;;;19.50;99.90;;;;;;5051658;28;20460;-69
2022/09/12 08:50:15;;;;;;;5.10;3.40;;;19.60;99.90;;;;;;5050899;28;20495;-69
2022/09/12 08:52:50;;;;;;;3.70;3.40;;;19.80;99.90;;;;;;5050369;28;20630;-68
2022/09/12 08:55:27;;;;;;;4.30;3.83;;;20.00;99.90;;;;;;5051451;28;20558;-69
2022/09/12 08:57:54;;;;;;;3.70;3.40;;;20.10;99.90;;;;;;5051002;28;20456;-69
2022/09/12 09:00:22;;;;;;;3.80;3.33;;;20.20;99.90;;;;;;5050190;28;20817;-68
2022/09/12 09:03:32;;;;;;;3.30;2.63;;;20.30;99.90;;;;;;5050657;28;20483;-68
2022/09/12 09:06:07;;;;;;;3.40;3.10;;;20.40;99.90;;;;;;5051379;28;20470;-68
2022/09/12 09:08:50;;;;;;;3.20;2.90;;;20.60;99.90;;;;;;5051182;28;20550;-66
2022/09/12 09:11:37;;;;;;;3.33;3.00;;;20.70;99.90;;;;;;5050567;28;20470;-66
2022/09/12 09:17:13;;;;;;;3.00;2.80;;;20.90;99.90;;;;;;5051351;28;20447;-66
2022/09/12 09:19:46;;;;;;;4.23;2.90;;;21.10;99.90;;;;;;5050747;28;20825;-66
2022/09/12 09:22:20;;;;;;;2.87;2.50;;;21.20;99.90;;;;;;5049278;28;20460;-69
2022/09/12 09:24:52;;;;;;;2.43;2.23;;;21.20;99.90;;;;;;5050899;28;20862;-69
2022/09/12 09:27:29;;;;;;;3.00;2.70;;;21.20;99.90;;;;;;5050206;28;20491;-67
2022/09/12 09:29:56;;;;;;;2.40;2.20;;;21.20;99.90;;;;;;5050020;28;20589;-68
2022/09/12 09:32:27;;;;;;;2.67;2.47;;;21.30;99.90;;;;;;5049647;28;20475;-68
2022/09/12 09:34:54;;;;;;;3.23;2.93;;;21.40;99.90;;;;;;5050246;28;20979;-68
2022/09/12 09:37:27;;;;;;;3.87;3.10;;;21.50;99.90;;;;;;5050122;28;20468;-69
2022/09/12 09:40:01;;;;;;;2.93;2.73;;;21.70;99.90;;;;;;5050298;28;20474;-69
2022/09/12 09:42:39;;;;;;;2.93;2.73;;;21.90;99.90;;;;;;5049679;28;20476;-68
2022/09/12 09:45:14;;;;;;;2.50;2.30;;;22.00;99.90;;;;;;5049863;28;20471;-68
2022/09/12 09:47:44;;;;;;;2.23;2.03;;;22.10;99.90;;;;;;5049540;28;20967;-69
2022/09/12 09:50:15;;;;;;;2.00;1.80;;;22.20;99.90;;;;;;5049564;28;20495;-69
2022/09/12 09:52:42;;;;;;;2.40;1.93;;;22.30;99.90;;;;;;5049333;28;20514;-68
2022/09/12 09:55:15;;;;;;;2.57;2.37;;;22.40;99.90;;;;;;5050009;28;20474;-69
2022/09/12 09:57:44;;;;;;;2.20;2.00;;;22.50;99.90;;;;;;5050173;28;20486;-69
2022/09/12 10:00:35;;;;;;;1.80;1.70;;;22.60;99.90;;;;;;5048923;28;20526;-68
2022/09/12 10:03:31;;;;;;;2.27;2.07;;;22.70;99.90;;;;;;5034431;28;20487;-68
2022/09/12 10:06:00;;;;;;;2.20;1.97;;;22.90;99.90;;;;;;5049396;28;20562;-68
2022/09/12 10:08:29;;;;;;;1.80;1.70;;;23.10;99.90;;;;;;5049187;28;20858;-68
2022/09/12 10:11:00;;;;;;;4.13;1.90;;;23.10;99.90;;;;;;5049064;28;20826;-68
2022/09/12 10:13:39;;;;;;;1.83;1.70;;;23.20;99.90;;;;;;5049603;28;20491;-68
2022/09/12 10:16:18;;;;;;;2.50;2.30;;;23.10;99.90;;;;;;5049417;28;20951;-68
2022/09/12 10:18:46;;;;;;;1.90;1.80;;;23.20;99.90;;;;;;5049948;28;20518;-68
2022/09/12 10:21:28;;;;;;;2.00;1.90;;;23.40;99.90;;;;;;5048896;28;20464;-68
2022/09/12 10:24:02;;;;;;;2.20;2.00;;;23.50;99.90;;;;;;5048801;28;20475;-68
2022/09/12 10:26:34;;;;;;;2.00;1.80;;;23.40;99.90;;;;;;5050166;28;20468;-68
2022/09/12 10:29:10;;;;;;;2.53;1.90;;;23.40;99.90;;;;;;5049037;28;21026;-68
2022/09/12 10:31:46;;;;;;;2.13;1.93;;;23.40;99.90;;;;;;5049116;28;20817;-68
2022/09/12 10:34:24;;;;;;;2.17;1.93;;;23.40;99.90;;;;;;5049393;28;20476;-68
2022/09/12 10:36:55;;;;;;;3.60;2.00;;;23.50;99.90;;;;;;5049498;28;20456;-68
2022/09/12 10:39:22;;;;;;;1.90;1.80;;;23.70;99.90;;;;;;5049694;28;20459;-68
2022/09/12 10:41:49;;;;;;;2.30;2.10;;;23.80;99.90;;;;;;5047575;28;20918;-68
2022/09/12 10:44:18;;;;;;;2.27;2.00;;;23.90;99.90;;;;;;5049252;28;20491;-68
2022/09/12 10:46:45;;;;;;;2.10;1.90;;;24.00;99.90;;;;;;5049272;28;20980;-68
2022/09/12 10:49:19;;;;;;;2.13;1.63;;;24.10;99.90;;;;;;5049514;28;20488;-68
2022/09/12 10:51:48;;;;;;;2.10;1.90;;;24.10;99.90;;;;;;5048197;28;20468;-68
2022/09/12 10:54:18;;;;;;;2.93;1.97;;;24.00;99.90;;;;;;5049429;28;20480;-68
2022/09/12 10:56:54;;;;;;;1.93;1.83;;;24.00;99.90;;;;;;5049503;28;20487;-68
2022/09/12 10:59:33;;;;;;;2.30;1.80;;;24.00;99.90;;;;;;5051694;28;20463;-68
2022/09/12 11:02:01;;;;;;;1.77;1.67;;;24.10;99.90;;;;;;5059292;28;20470;-68
2022/09/12 11:04:41;;;;;;;2.10;1.97;;;24.20;99.90;;;;;;5073859;28;20459;-68
2022/09/12 11:07:29;;;;;;;2.07;1.90;;;24.30;99.90;;;;;;5074188;28;20502;-68
2022/09/12 11:10:03;;;;;;;1.87;1.73;;;24.30;99.90;;;;;;5073791;28;21025;-68
2022/09/12 11:12:41;;;;;;;2.17;1.97;;;24.40;99.90;;;;;;5073597;28;20474;-68
2022/09/12 11:15:29;;;;;;;2.30;2.03;;;24.40;99.90;;;;;;5073582;28;20557;-68
2022/09/12 11:18:00;;;;;;;2.07;1.77;;;24.60;99.90;;;;;;5055508;28;20456;-68
2022/09/12 11:20:44;;;;;;;1.90;1.80;;;24.70;99.90;;;;;;5053168;28;20452;-68
2022/09/12 11:23:36;;;;;;;2.03;1.93;;;24.70;99.90;;;;;;5052362;28;20494;-68
2022/09/12 11:26:14;;;;;;;2.40;1.90;;;24.70;99.90;;;;;;5053107;28;20468;-68
2022/09/12 11:28:52;;;;;;;2.60;1.80;;;24.70;99.90;;;;;;5053366;28;20472;-68
2022/09/12 11:31:44;;;;;;;1.70;1.60;;;24.70;99.90;;;;;;5057049;28;20486;-68
2022/09/12 11:34:17;;;;;;;1.77;1.50;;;24.60;99.90;;;;;;5070888;28;20483;-68
2022/09/12 11:36:56;;;;;;;2.27;2.07;;;24.70;99.90;;;;;;5073037;28;20470;-68
2022/09/12 11:39:29;;;;;;;1.70;1.60;;;24.80;99.90;;;;;;5073236;28;20451;-68
2022/09/12 11:42:00;;;;;;;1.73;1.63;;;24.90;99.90;;;;;;5072355;28;20964;-68
2022/09/12 11:44:32;;;;;;;1.73;1.63;;;25.10;99.90;;;;;;5073129;28;20467;-68
2022/09/12 11:47:04;;;;;;;1.93;1.83;;;25.10;99.90;;;;;;5073052;28;20474;-68
2022/09/12 11:49:37;;;;;;;1.87;1.77;;;25.20;99.90;;;;;;5072300;28;21025;-68
2022/09/12 11:52:10;;;;;;;1.70;1.57;;;25.40;99.90;;;;;;5072167;28;20459;-68
2022/09/12 11:54:43;;;;;;;1.83;1.73;;;25.50;99.90;;;;;;5072658;28;20478;-68
2022/09/12 11:57:16;;;;;;;2.17;2.00;;;25.40;99.90;;;;;;5072472;28;20475;-68
2022/09/12 11:59:48;;;;;;;1.97;1.47;;;25.50;99.90;;;;;;5072309;28;20467;-68
2022/09/12 12:02:21;;;;;;;1.53;1.43;;;25.50;99.90;;;;;;5072139;28;20495;-68
2022/09/12 12:05:02;;;;;;;1.87;1.77;;;25.60;99.90;;;;;;5072791;28;20471;-68
2022/09/12 12:07:37;;;;;;;2.20;1.60;;;25.70;99.90;;;;;;5072950;28;20466;-68
2022/09/12 12:10:08;;;;;;;1.63;1.53;;;25.80;99.90;;;;;;5071364;28;20490;-68
2022/09/12 12:12:36;;;;;;;2.57;1.87;;;25.80;99.90;;;;;;5071517;28;20483;-68
2022/09/12 12:15:03;;;;;;;2.20;1.60;;;25.80;99.90;;;;;;5072492;28;20459;-68
2022/09/12 12:17:30;;;;;;;2.50;1.60;;;25.80;98.40;;;;;;5072111;28;20937;-68
2022/09/12 12:20:00;;;;;;;1.83;1.73;;;25.80;99.90;;;;;;5072280;28;20507;-68
2022/09/12 12:22:28;;;;;;;1.80;1.70;;;25.80;99.90;;;;;;5071802;28;20517;-68
2022/09/12 12:25:04;;;;;;;1.50;1.40;;;25.80;99.90;;;;;;5071568;28;20455;-68
2022/09/12 12:30:00;;;;;;;1.40;1.30;;;26.00;99.70;;;;;;5054487;28;21195;-66
2022/09/12 12:32:27;;;;;;;1.60;1.50;;;26.10;99.90;;;;;;5051385;28;20506;-66
2022/09/12 12:35:31;;;;;;;1.47;1.37;;;26.20;99.90;;;;;;5052008;28;20457;-66
2022/09/12 12:37:58;;;;;;;1.63;1.53;;;26.30;99.90;;;;;;5051795;28;20487;-66
2022/09/12 12:40:28;;;;;;;1.40;1.30;;;26.30;99.70;;;;;;5051243;28;20444;-66
2022/09/12 12:43:30;;;;;;;1.70;1.40;;;26.40;99.90;;;;;;5051444;28;20483;-66
2022/09/12 12:46:07;;;;;;;1.83;1.30;;;26.50;99.50;;;;;;5051713;28;20460;-66
2022/09/12 12:48:51;;;;;;;1.93;1.53;;;26.30;98.90;;;;;;5051388;28;20872;-66
2022/09/12 12:51:31;;;;;;;2.17;1.40;;;26.30;98.80;;;;;;5051150;28;20930;-66
2022/09/12 12:53:59;;;;;;;1.30;1.20;;;26.30;97.90;;;;;;5051159;28;20986;-66
2022/09/12 12:56:32;;;;;;;2.03;1.40;;;26.30;98.60;;;;;;5051315;28;20468;-66
2022/09/12 12:59:01;;;;;;;1.23;1.13;;;26.40;98.20;;;;;;5051667;28;20470;-66
2022/09/12 13:01:30;;;;;;;1.57;1.47;;;26.40;98.00;;;;;;5051012;28;20468;-68
2022/09/12 13:04:01;;;;;;;1.37;1.27;;;26.40;97.70;;;;;;5050718;28;20484;-66
2022/09/12 13:06:36;;;;;;;1.73;1.20;;;26.50;95.10;;;;;;5051705;28;20843;-66
2022/09/12 13:09:06;;;;;;;2.57;1.27;;;26.20;94.60;;;;;;5050910;28;20463;-66
2022/09/12 13:11:35;;;;;;;1.40;1.30;;;26.10;95.70;;;;;;5051110;28;20520;-66
2022/09/12 13:14:05;;;;;;;1.13;1.03;;;26.10;97.10;;;;;;5050107;28;20484;-66
2022/09/12 13:16:36;;;;;;;1.50;1.40;;;26.30;96.10;;;;;;5051258;28;20472;-66
2022/09/12 13:19:05;;;;;;;1.67;1.40;;;26.30;95.60;;;;;;5050932;28;20843;-66